createdAt,value
2022-09-17T00:00:50.885Z,77.17
2022-09-17T00:03:17.386Z,76.55
2022-09-17T00:05:44.413Z,77.23
2022-09-17T00:08:15.087Z,77.25
2022-09-17T00:10:44.149Z,77.63
2022-09-17T00:13:11.464Z,77.16
2022-09-17T00:15:42.528Z,76.65
2022-09-17T00:18:09.600Z,77.70
2022-09-17T00:20:45.006Z,77.77
2022-09-17T00:23:13.238Z,78.42
2022-09-17T00:25:44.494Z,78.58
2022-09-17T00:28:14.882Z,79.49
2022-09-17T00:30:45.725Z,78.62
2022-09-17T00:33:16.744Z,78.80
2022-09-17T00:35:44.412Z,77.86
2022-09-17T00:38:11.424Z,78.61
2022-09-17T00:40:38.673Z,78.95
2022-09-17T00:43:10.072Z,79.81
2022-09-17T00:45:37.381Z,79.58
2022-09-17T00:48:06.829Z,79.62
2022-09-17T00:50:42.093Z,78.79
2022-09-17T00:53:14.075Z,78.63
2022-09-17T00:55:48.695Z,79.04
2022-09-17T00:58:18.798Z,78.88
2022-09-17T01:00:46.896Z,78.90
2022-09-17T01:03:13.489Z,79.00
2022-09-17T01:06:02.039Z,77.73
2022-09-17T01:08:39.511Z,78.32
2022-09-17T01:11:21.830Z,77.69
2022-09-17T01:14:19.282Z,77.06
2022-09-17T01:16:55.471Z,77.12
2022-09-17T01:19:40.659Z,77.20
2022-09-17T01:22:42.294Z,78.56
2022-09-17T01:25:17.569Z,77.93
2022-09-17T01:28:24.383Z,76.50
2022-09-17T01:31:09.874Z,77.73
2022-09-17T01:33:53.229Z,77.19
2022-09-17T01:36:35.465Z,77.75
2022-09-17T01:39:31.765Z,77.29
2022-09-17T01:42:10.232Z,77.65
2022-09-17T01:44:39.312Z,77.56
2022-09-17T01:47:21.161Z,77.72
2022-09-17T01:49:51.384Z,78.30
2022-09-17T01:52:19.706Z,78.73
2022-09-17T01:54:49.398Z,80.25
2022-09-17T01:57:28.145Z,80.14
2022-09-17T02:00:02.473Z,79.74
2022-09-17T02:02:48.134Z,80.16
2022-09-17T02:05:30.605Z,80.79
2022-09-17T02:08:10.393Z,80.48
2022-09-17T02:10:46.907Z,79.66
2022-09-17T02:13:26.926Z,79.00
2022-09-17T02:16:07.662Z,78.58
2022-09-17T02:18:55.441Z,78.16
2022-09-17T02:21:52.089Z,77.40
2022-09-17T02:24:25.643Z,78.17
2022-09-17T02:27:01.192Z,77.64
2022-09-17T02:29:53.956Z,76.94
2022-09-17T02:32:20.358Z,76.72
2022-09-17T02:34:47.456Z,76.97
2022-09-17T02:37:14.470Z,76.74
2022-09-17T02:39:41.740Z,76.11
2022-09-17T02:42:22.391Z,76.25
2022-09-17T02:45:10.676Z,75.53
2022-09-17T02:48:06.165Z,77.15
2022-09-17T02:51:09.080Z,76.96
2022-09-17T02:53:56.767Z,76.90
2022-09-17T02:56:56.187Z,77.29
2022-09-17T02:59:30.539Z,77.54
2022-09-17T03:02:03.639Z,77.47
2022-09-17T03:04:32.069Z,76.73
2022-09-17T03:06:59.509Z,78.02
2022-09-17T03:09:26.385Z,79.28
2022-09-17T03:11:52.840Z,79.26
2022-09-17T03:14:20.669Z,80.82
2022-09-17T03:16:47.909Z,79.76
2022-09-17T03:19:14.330Z,78.12
2022-09-17T03:21:40.685Z,80.31
2022-09-17T03:24:08.125Z,80.64
2022-09-17T03:26:34.572Z,80.28
2022-09-17T03:29:01.564Z,79.53
2022-09-17T03:31:29.089Z,79.41
2022-09-17T03:33:55.624Z,79.25
2022-09-17T03:36:22.004Z,79.74
2022-09-17T03:38:48.414Z,79.30
2022-09-17T03:41:14.853Z,79.19
2022-09-17T03:43:41.211Z,79.04
2022-09-17T03:46:07.685Z,79.25
2022-09-17T03:48:37.019Z,78.63
2022-09-17T03:51:03.989Z,79.34
2022-09-17T03:53:30.452Z,80.05
2022-09-17T03:56:01.628Z,80.93
2022-09-17T03:58:29.676Z,80.49
2022-09-17T04:00:57.864Z,80.07
2022-09-17T04:03:25.911Z,80.71
2022-09-17T04:05:52.457Z,80.15
2022-09-17T04:08:19.393Z,80.36
2022-09-17T04:10:47.871Z,80.22
2022-09-17T04:13:16.662Z,80.24
2022-09-17T04:15:44.655Z,79.91
2022-09-17T04:18:11.806Z,80.15
2022-09-17T04:20:38.195Z,80.58
2022-09-17T04:23:04.577Z,80.12
2022-09-17T04:25:30.980Z,80.01
2022-09-17T04:27:57.344Z,80.45
2022-09-17T04:30:24.764Z,80.18
2022-09-17T04:32:51.119Z,80.38
2022-09-17T04:35:17.574Z,79.90
2022-09-17T04:37:43.984Z,80.19
2022-09-17T04:40:10.723Z,80.44
2022-09-17T04:42:37.172Z,79.96
2022-09-17T04:45:03.690Z,80.50
2022-09-17T04:47:30.157Z,80.17
2022-09-17T04:49:56.859Z,80.91
2022-09-17T04:52:25.549Z,80.65
2022-09-17T04:54:54.258Z,80.76
2022-09-17T04:57:20.618Z,79.84
2022-09-17T04:59:47.021Z,80.34
2022-09-17T05:02:13.456Z,80.21
2022-09-17T05:04:39.899Z,80.47
2022-09-17T05:07:06.317Z,80.32
2022-09-17T05:09:32.731Z,80.26
2022-09-17T05:11:59.152Z,80.84
2022-09-17T05:14:25.530Z,80.57
2022-09-17T05:16:51.931Z,80.61
2022-09-17T05:19:18.630Z,79.97
2022-09-17T05:21:45.084Z,80.38
2022-09-17T05:24:11.437Z,80.87
2022-09-17T05:26:37.824Z,80.73
2022-09-17T05:29:04.728Z,80.50
2022-09-17T05:31:31.154Z,80.18
2022-09-17T05:33:58.379Z,80.17
2022-09-17T05:36:25.183Z,80.91
2022-09-17T05:38:51.710Z,80.78
2022-09-17T05:41:18.210Z,80.81
2022-09-17T05:43:44.572Z,80.91
2022-09-17T05:46:11.090Z,80.78
2022-09-17T05:48:37.498Z,80.85
2022-09-17T05:51:03.950Z,80.64
2022-09-17T05:53:30.319Z,80.53
2022-09-17T05:55:58.028Z,81.00
2022-09-17T05:58:24.484Z,80.17
2022-09-17T06:00:51.591Z,80.91
2022-09-17T06:03:19.762Z,80.73
2022-09-17T06:05:54.801Z,80.24
2022-09-17T06:08:21.971Z,80.36
2022-09-17T06:10:48.947Z,80.10
2022-09-17T06:13:17.489Z,81.07
2022-09-17T06:15:53.378Z,80.55
2022-09-17T06:18:20.078Z,80.56
2022-09-17T06:20:57.570Z,80.33
2022-09-17T06:23:24.669Z,80.41
2022-09-17T06:25:56.336Z,80.80
2022-09-17T06:28:23.432Z,80.92
2022-09-17T06:30:52.609Z,81.16
2022-09-17T06:33:19.243Z,80.20
2022-09-17T06:35:45.697Z,79.61
2022-09-17T06:38:12.251Z,79.99
2022-09-17T06:40:39.173Z,79.83
2022-09-17T06:43:05.810Z,80.00
2022-09-17T06:45:32.227Z,80.29
2022-09-17T06:48:03.044Z,79.70
2022-09-17T06:50:29.431Z,79.81
2022-09-17T06:52:55.967Z,80.00
2022-09-17T06:55:22.384Z,79.78
2022-09-17T06:57:48.725Z,79.59
2022-09-17T07:00:15.367Z,79.30
2022-09-17T07:02:41.807Z,78.89
2022-09-17T07:05:08.787Z,78.93
2022-09-17T07:07:35.809Z,79.13
2022-09-17T07:10:02.922Z,79.13
2022-09-17T07:12:29.360Z,78.97
2022-09-17T07:14:56.749Z,78.97
2022-09-17T07:17:23.209Z,78.13
2022-09-17T07:19:50.820Z,77.77
2022-09-17T07:22:17.420Z,77.08
2022-09-17T07:24:43.820Z,77.09
2022-09-17T07:27:10.232Z,77.29
2022-09-17T07:29:36.729Z,77.34
2022-09-17T07:32:03.170Z,75.00
2022-09-17T07:34:29.580Z,73.70
2022-09-17T07:36:56.037Z,72.92
2022-09-17T07:39:22.463Z,70.02
2022-09-17T07:41:48.898Z,67.08
2022-09-17T07:44:15.253Z,65.45
2022-09-17T07:46:41.769Z,63.55
2022-09-17T07:50:11.338Z,61.49
2022-09-17T07:52:37.906Z,59.90
2022-09-17T07:55:04.678Z,59.37
2022-09-17T07:57:31.189Z,59.12
2022-09-17T07:59:57.666Z,60.78
2022-09-17T08:02:24.654Z,60.40
2022-09-17T08:04:51.161Z,59.55
2022-09-17T08:07:17.615Z,58.54
2022-09-17T08:09:44.189Z,55.23
2022-09-17T08:12:10.639Z,56.12
2022-09-17T08:14:37.065Z,54.70
2022-09-17T08:17:03.474Z,54.77
2022-09-17T08:19:33.090Z,54.79
2022-09-17T08:21:59.522Z,54.94
2022-09-17T08:24:26.069Z,55.46
2022-09-17T08:26:52.521Z,55.47
2022-09-17T08:29:18.989Z,55.31
2022-09-17T08:31:45.520Z,53.78
2022-09-17T08:34:13.289Z,54.37
2022-09-17T08:36:39.725Z,54.20
2022-09-17T08:39:06.188Z,56.28
2022-09-17T08:42:07.954Z,54.84
2022-09-17T08:44:41.166Z,56.36
2022-09-17T08:47:26.358Z,55.25
2022-09-17T08:49:56.006Z,55.25
2022-09-17T08:52:43.678Z,54.21
2022-09-17T08:55:47.925Z,52.55
2022-09-17T08:58:55.655Z,52.15
2022-09-17T09:01:50.229Z,51.75
2022-09-17T09:04:33.026Z,51.59
2022-09-17T09:07:09.086Z,48.95
2022-09-17T09:09:46.277Z,46.89
2022-09-17T09:12:26.469Z,51.51
2022-09-17T09:15:07.291Z,52.35
2022-09-17T09:17:41.663Z,52.49
2022-09-17T09:20:23.030Z,54.42
2022-09-17T09:22:52.013Z,54.83
2022-09-17T09:25:22.938Z,54.69
2022-09-17T09:28:18.573Z,53.35
2022-09-17T09:31:00.232Z,53.75
2022-09-17T09:33:31.588Z,51.32
2022-09-17T09:35:59.022Z,50.11
2022-09-17T09:38:31.379Z,51.90
2022-09-17T09:41:16.005Z,53.24
2022-09-17T09:44:12.462Z,53.28
2022-09-17T09:47:03.228Z,52.73
2022-09-17T09:49:51.162Z,52.82
2022-09-17T09:52:26.687Z,53.79
2022-09-17T09:55:40.153Z,55.41
2022-09-17T09:58:29.115Z,54.43
2022-09-17T10:00:55.609Z,54.92
2022-09-17T10:03:24.591Z,53.39
2022-09-17T10:05:58.790Z,53.27
2022-09-17T10:08:26.618Z,53.77
2022-09-17T10:10:57.665Z,53.04
2022-09-17T10:13:24.879Z,53.43
2022-09-17T10:15:51.569Z,56.17
2022-09-17T10:18:24.027Z,62.16
2022-09-17T10:20:54.993Z,64.75
2022-09-17T10:23:23.111Z,66.52
2022-09-17T10:25:50.127Z,67.13
2022-09-17T10:28:34.950Z,68.79
2022-09-17T10:31:08.799Z,69.25
2022-09-17T10:33:39.012Z,69.40
2022-09-17T10:36:07.707Z,68.69
2022-09-17T10:38:40.186Z,68.52
2022-09-17T10:41:18.703Z,69.02
2022-09-17T10:43:45.740Z,68.83
2022-09-17T10:46:27.561Z,69.27
2022-09-17T10:49:35.981Z,68.75
2022-09-17T10:52:12.562Z,69.20
2022-09-17T10:55:01.097Z,70.03
2022-09-17T10:57:46.563Z,68.92
2022-09-17T11:00:18.531Z,67.20
2022-09-17T11:03:26.443Z,68.27
2022-09-17T11:06:10.995Z,69.04
2022-09-17T11:09:05.301Z,69.19
2022-09-17T11:11:56.173Z,68.98
2022-09-17T11:15:02.853Z,68.35
2022-09-17T11:17:53.770Z,67.95
2022-09-17T11:20:23.728Z,67.38
2022-09-17T11:23:28.401Z,66.67
2022-09-17T11:26:05.888Z,66.24
2022-09-17T11:28:32.233Z,65.99
2022-09-17T11:31:24.038Z,64.72
2022-09-17T11:34:12.909Z,63.94
2022-09-17T11:37:09.197Z,64.61
2022-09-17T11:39:50.012Z,65.02
2022-09-17T11:42:22.021Z,65.15
2022-09-17T11:45:03.125Z,65.50
2022-09-17T11:47:35.098Z,65.58
2022-09-17T11:50:28.750Z,65.26
2022-09-17T11:53:29.894Z,64.08
2022-09-17T11:56:10.536Z,63.11
2022-09-17T11:58:58.549Z,61.96
2022-09-17T12:01:57.192Z,62.50
2022-09-17T12:04:42.506Z,58.93
2022-09-17T12:07:43.687Z,61.36
2022-09-17T12:10:36.646Z,63.64
2022-09-17T12:13:35.452Z,61.76
2022-09-17T12:16:11.817Z,61.02
2022-09-17T12:18:48.891Z,60.25
2022-09-17T12:21:21.375Z,61.87
2022-09-17T12:23:54.368Z,58.94
2022-09-17T12:26:33.217Z,60.23
2022-09-17T12:29:16.998Z,62.12
2022-09-17T12:32:14.564Z,59.06
2022-09-17T12:35:15.314Z,58.18
2022-09-17T12:38:10.765Z,58.85
2022-09-17T12:41:01.561Z,58.76
2022-09-17T12:43:31.082Z,59.08
2022-09-17T12:46:00.466Z,58.74
2022-09-17T12:49:01.089Z,59.60
2022-09-17T12:51:55.311Z,59.95
2022-09-17T12:54:48.856Z,61.20
2022-09-17T12:57:52.874Z,59.32
2022-09-17T13:00:19.408Z,59.73
2022-09-17T13:03:04.532Z,58.87
2022-09-17T13:06:09.003Z,59.33
2022-09-17T13:08:44.423Z,57.62
2022-09-17T13:11:41.320Z,55.76
2022-09-17T13:14:37.502Z,54.02
2022-09-17T13:17:11.182Z,54.17
2022-09-17T13:19:52.847Z,56.03
2022-09-17T13:22:21.234Z,57.03
2022-09-17T13:25:03.462Z,56.01
2022-09-17T13:27:29.957Z,53.82
2022-09-17T13:29:56.365Z,55.03
2022-09-17T13:32:34.947Z,52.39
2022-09-17T13:35:13.635Z,52.90
2022-09-17T13:37:52.050Z,55.11
2022-09-17T13:40:24.616Z,52.68
2022-09-17T13:42:57.206Z,50.97
2022-09-17T13:45:25.275Z,52.22
2022-09-17T13:48:05.569Z,51.28
2022-09-17T13:50:35.844Z,50.53
2022-09-17T13:53:18.638Z,52.24
2022-09-17T13:55:49.808Z,50.91
2022-09-17T13:58:19.170Z,50.51
2022-09-17T14:01:01.065Z,52.71
2022-09-17T14:03:45.558Z,52.66
2022-09-17T14:06:12.048Z,51.71
2022-09-17T14:08:44.167Z,51.36
2022-09-17T14:11:22.820Z,52.06
2022-09-17T14:13:50.356Z,51.80
2022-09-17T14:16:37.500Z,52.82
2022-09-17T14:19:16.518Z,52.99
2022-09-17T14:21:57.284Z,53.79
2022-09-17T14:24:26.805Z,53.36
2022-09-17T14:27:05.678Z,54.68
2022-09-17T14:29:47.009Z,55.87
2022-09-17T14:32:22.082Z,55.68
2022-09-17T14:34:49.658Z,56.21
2022-09-17T14:37:20.571Z,56.99
2022-09-17T14:39:48.840Z,58.28
2022-09-17T14:42:20.974Z,60.04
2022-09-17T14:44:54.505Z,62.37
2022-09-17T14:47:21.751Z,62.34
2022-09-17T14:49:48.828Z,61.13
2022-09-17T14:52:32.673Z,64.97
2022-09-17T14:55:20.073Z,66.27
2022-09-17T14:57:53.207Z,67.33
2022-09-17T15:00:31.769Z,68.25
2022-09-17T15:02:59.642Z,68.26
2022-09-17T15:05:34.137Z,69.26
2022-09-17T15:08:11.228Z,69.87
2022-09-17T15:10:58.700Z,70.49
2022-09-17T15:13:33.790Z,70.44
2022-09-17T15:16:05.131Z,69.62
2022-09-17T15:18:50.611Z,69.91
2022-09-17T15:21:39.413Z,70.49
2022-09-17T15:24:34.346Z,69.97
2022-09-17T15:27:08.598Z,70.56
2022-09-17T15:29:37.522Z,70.56
2022-09-17T15:32:06.282Z,69.66
2022-09-17T15:34:32.778Z,69.86
2022-09-17T15:37:05.651Z,69.35
2022-09-17T15:39:39.703Z,69.84
2022-09-17T15:42:17.727Z,69.35
2022-09-17T15:44:44.171Z,69.47
2022-09-17T15:47:37.711Z,69.43
2022-09-17T15:50:13.926Z,69.46
2022-09-17T15:52:40.457Z,69.97
2022-09-17T15:55:29.243Z,68.43
2022-09-17T15:57:58.184Z,67.90
2022-09-17T16:00:25.044Z,67.91
2022-09-17T16:02:52.326Z,68.11
2022-09-17T16:05:50.819Z,68.17
2022-09-17T16:08:22.554Z,68.00
2022-09-17T16:10:50.221Z,67.81
2022-09-17T16:13:16.607Z,68.01
2022-09-17T16:15:43.061Z,68.03
2022-09-17T16:18:13.435Z,68.44
2022-09-17T16:20:39.837Z,69.26
2022-09-17T16:23:06.214Z,69.88
2022-09-17T16:25:32.726Z,69.39
2022-09-17T16:28:29.045Z,69.86
2022-09-17T16:30:56.035Z,69.99
2022-09-17T16:33:22.622Z,70.84
2022-09-17T16:35:49.075Z,70.96
2022-09-17T16:38:15.628Z,70.89
2022-09-17T16:40:44.893Z,70.75
2022-09-17T16:43:11.288Z,71.35
2022-09-17T16:45:37.769Z,72.38
2022-09-17T16:48:05.708Z,71.96
2022-09-17T16:50:33.095Z,72.63
2022-09-17T16:53:04.716Z,74.17
2022-09-17T16:55:31.680Z,74.77
2022-09-17T16:57:58.818Z,76.52
2022-09-17T17:00:25.314Z,78.71
2022-09-17T17:02:54.813Z,80.10
2022-09-17T17:05:21.982Z,77.94
2022-09-17T17:07:48.909Z,77.09
2022-09-17T17:10:15.512Z,76.79
2022-09-17T17:12:42.231Z,74.60
2022-09-17T17:15:09.325Z,73.24
2022-09-17T17:17:37.012Z,73.93
2022-09-17T17:20:08.900Z,72.71
2022-09-17T17:22:36.952Z,72.29
2022-09-17T17:25:05.488Z,71.94
2022-09-17T17:27:32.420Z,70.76
2022-09-17T17:29:59.062Z,70.87
2022-09-17T17:32:25.600Z,70.70
2022-09-17T17:34:52.007Z,71.13
2022-09-17T17:37:18.499Z,71.16
2022-09-17T17:39:44.895Z,71.88
2022-09-17T17:42:11.345Z,71.77
2022-09-17T17:44:37.738Z,72.62
2022-09-17T17:47:04.765Z,72.91
2022-09-17T17:49:31.182Z,73.19
2022-09-17T17:51:57.542Z,72.52
2022-09-17T17:54:24.427Z,73.50
2022-09-17T17:56:50.904Z,73.08
2022-09-17T17:59:17.342Z,72.19
2022-09-17T18:01:43.870Z,72.86
2022-09-17T18:04:10.472Z,73.23
2022-09-17T18:06:37.082Z,74.17
2022-09-17T18:09:04.213Z,73.65
2022-09-17T18:11:31.048Z,74.15
2022-09-17T18:14:00.767Z,74.70
2022-09-17T18:16:28.141Z,74.55
2022-09-17T18:18:57.354Z,74.19
2022-09-17T18:21:24.398Z,74.15
2022-09-17T18:23:51.061Z,74.22
2022-09-17T18:26:22.804Z,74.22
2022-09-17T18:28:49.826Z,73.80
2022-09-17T18:31:29.596Z,74.05
2022-09-17T18:33:57.698Z,74.51
2022-09-17T18:36:26.467Z,74.63
2022-09-17T18:39:16.683Z,75.73
2022-09-17T18:41:47.882Z,75.89
2022-09-17T18:44:14.497Z,78.07
2022-09-17T18:46:42.523Z,78.55
2022-09-17T18:49:09.113Z,78.85
2022-09-17T18:51:35.662Z,78.75
2022-09-17T18:54:03.746Z,80.21
2022-09-17T18:56:33.085Z,79.63
2022-09-17T18:59:04.437Z,78.64
2022-09-17T19:01:34.108Z,79.01
2022-09-17T19:04:00.655Z,79.56
2022-09-17T19:06:27.841Z,79.29
2022-09-17T19:08:58.714Z,78.58
2022-09-17T19:11:25.218Z,78.34
2022-09-17T19:13:51.721Z,79.00
2022-09-17T19:16:18.313Z,78.81
2022-09-17T19:18:44.874Z,79.59
2022-09-17T19:21:13.953Z,79.24
2022-09-17T19:23:45.284Z,79.71
2022-09-17T19:26:14.329Z,79.79
2022-09-17T19:28:41.046Z,80.01
2022-09-17T19:31:16.371Z,81.12
2022-09-17T19:33:43.872Z,81.56
2022-09-17T19:36:12.854Z,81.91
2022-09-17T19:38:39.301Z,81.63
2022-09-17T19:41:09.971Z,81.78
2022-09-17T19:43:36.921Z,81.35
2022-09-17T19:46:10.687Z,81.03
2022-09-17T19:48:42.670Z,80.94
2022-09-17T19:51:09.151Z,81.44
2022-09-17T19:53:35.752Z,80.62
2022-09-17T19:56:02.466Z,79.81
2022-09-17T19:58:29.088Z,79.39
2022-09-17T20:00:57.231Z,78.09
2022-09-17T20:03:24.246Z,78.28
2022-09-17T20:05:50.722Z,78.26
2022-09-17T20:08:17.106Z,78.46
2022-09-17T20:10:43.999Z,77.61
2022-09-17T20:13:10.542Z,77.62
2022-09-17T20:15:37.034Z,77.66
2022-09-17T20:18:03.860Z,77.70
2022-09-17T20:20:30.359Z,78.16
2022-09-17T20:22:56.781Z,79.09
2022-09-17T20:25:25.485Z,78.32
2022-09-17T20:27:53.166Z,78.68
2022-09-17T20:30:19.642Z,78.55
2022-09-17T20:32:46.153Z,78.91
2022-09-17T20:35:12.735Z,78.51
2022-09-17T20:40:25.502Z,78.96
2022-09-17T20:42:51.954Z,79.30
2022-09-17T20:45:18.388Z,79.46
2022-09-17T20:47:45.098Z,79.29
2022-09-17T20:50:11.503Z,79.42
2022-09-17T20:52:37.999Z,78.77
2022-09-17T20:55:04.828Z,78.63
2022-09-17T20:57:31.558Z,78.46
2022-09-17T21:00:00.725Z,78.88
2022-09-17T21:02:27.535Z,79.31
2022-09-17T21:04:54.133Z,79.09
2022-09-17T21:07:20.533Z,78.83
2022-09-17T21:09:47.154Z,78.34
2022-09-17T21:12:13.684Z,79.40
2022-09-17T21:14:40.164Z,79.02
2022-09-17T21:17:06.644Z,78.90
2022-09-17T21:19:33.102Z,79.08
2022-09-17T21:21:59.622Z,79.00
2022-09-17T21:24:26.073Z,79.43
2022-09-17T21:26:54.008Z,79.71
2022-09-17T21:29:20.847Z,79.59
2022-09-17T21:31:47.443Z,79.55
2022-09-17T21:34:14.765Z,79.35
2022-09-17T21:36:44.262Z,79.69
2022-09-17T21:39:16.569Z,79.71
2022-09-17T21:41:44.117Z,79.50
2022-09-17T21:44:11.955Z,79.33
2022-09-17T21:46:39.755Z,79.75
2022-09-17T21:49:06.542Z,79.10
2022-09-17T21:51:35.657Z,79.76
2022-09-17T21:54:05.541Z,78.89
2022-09-17T21:56:32.543Z,79.24
2022-09-17T21:59:04.194Z,79.09
2022-09-17T22:01:39.217Z,79.36
2022-09-17T22:04:10.450Z,79.18
2022-09-17T22:06:37.195Z,79.48
2022-09-17T22:09:04.961Z,79.28
2022-09-17T22:11:34.735Z,79.43
2022-09-17T22:14:05.225Z,78.88
2022-09-17T22:16:35.751Z,79.40
2022-09-17T22:19:03.201Z,79.81
2022-09-17T22:21:32.273Z,79.52
2022-09-17T22:24:01.335Z,79.41
2022-09-17T22:26:30.632Z,79.50
2022-09-17T22:29:01.983Z,78.81
2022-09-17T22:31:28.512Z,78.85
2022-09-17T22:33:55.051Z,79.24
2022-09-17T22:36:23.939Z,79.46
2022-09-17T22:38:58.394Z,79.30
2022-09-17T22:41:30.454Z,79.30
2022-09-17T22:44:02.042Z,79.48
2022-09-17T22:46:34.137Z,79.47
2022-09-17T22:49:01.350Z,79.42
2022-09-17T22:51:29.173Z,79.55
2022-09-17T22:53:56.132Z,79.17
2022-09-17T22:56:25.556Z,79.83
2022-09-17T22:58:51.962Z,79.24
2022-09-17T23:01:21.428Z,79.29
2022-09-17T23:03:48.924Z,79.35
2022-09-17T23:06:17.954Z,79.91
2022-09-17T23:08:44.401Z,79.97
2022-09-17T23:11:30.441Z,79.62
2022-09-17T23:14:02.206Z,79.41
2022-09-17T23:16:34.478Z,79.96
2022-09-17T23:19:03.769Z,80.31
2022-09-17T23:21:30.259Z,80.34
2022-09-17T23:23:57.040Z,80.14
2022-09-17T23:26:25.865Z,80.11
2022-09-17T23:28:52.318Z,79.60
2022-09-17T23:31:23.770Z,79.72
2022-09-17T23:33:51.138Z,79.89
2022-09-17T23:36:24.169Z,79.77
2022-09-17T23:38:51.460Z,80.21
2022-09-17T23:41:22.034Z,79.99
2022-09-17T23:43:54.020Z,80.38
2022-09-17T23:46:22.750Z,80.38
2022-09-17T23:48:51.534Z,80.38
2022-09-17T23:51:17.977Z,80.32
2022-09-17T23:53:44.499Z,80.00
2022-09-17T23:56:21.092Z,79.74
2022-09-17T23:58:48.489Z,79.92
